createdAt,value
2024-02-24T00:00:21.745Z,4.60
2024-02-24T00:02:49.426Z,5.05
2024-02-24T00:05:16.948Z,4.72
2024-02-24T00:07:44.399Z,4.62
2024-02-24T00:10:13.210Z,4.53
2024-02-24T00:12:40.726Z,4.50
2024-02-24T00:15:09.011Z,4.60
2024-02-24T00:17:37.920Z,4.07
2024-02-24T00:20:06.968Z,4.00
2024-02-24T00:22:36.902Z,4.40
2024-02-24T00:25:04.933Z,3.85
2024-02-24T00:27:32.319Z,4.15
2024-02-24T00:29:59.890Z,4.45
2024-02-24T00:32:29.354Z,4.40
2024-02-24T00:34:58.009Z,4.30
2024-02-24T00:37:25.749Z,4.10
2024-02-24T00:39:54.045Z,4.20
2024-02-24T00:42:21.469Z,4.03
2024-02-24T00:44:48.913Z,4.05
2024-02-24T00:47:16.666Z,4.05
2024-02-24T00:49:44.095Z,4.03
2024-02-24T00:52:11.552Z,4.28
2024-02-24T00:54:39.259Z,4.07
2024-02-24T00:57:06.876Z,4.03
2024-02-24T00:59:34.329Z,4.00
2024-02-24T01:02:02.119Z,4.20
2024-02-24T01:04:30.756Z,4.12
2024-02-24T01:06:59.285Z,4.22
2024-02-24T01:09:27.240Z,4.12
2024-02-24T01:11:54.797Z,3.90
2024-02-24T01:14:22.355Z,4.53
2024-02-24T01:16:50.098Z,4.35
2024-02-24T01:19:18.659Z,4.07
2024-02-24T01:21:46.141Z,4.47
2024-02-24T01:24:14.557Z,4.28
2024-02-24T01:26:42.353Z,4.43
2024-02-24T01:29:09.803Z,4.10
2024-02-24T01:31:37.004Z,3.95
2024-02-24T01:34:04.599Z,3.65
2024-02-24T01:36:32.881Z,4.65
2024-02-24T01:39:00.609Z,4.28
2024-02-24T01:41:31.927Z,4.70
2024-02-24T01:44:01.322Z,3.90
2024-02-24T01:46:29.487Z,4.43
2024-02-24T01:48:56.608Z,4.50
2024-02-24T01:51:23.548Z,3.83
2024-02-24T01:53:50.954Z,4.25
2024-02-24T01:56:19.125Z,4.00
2024-02-24T01:58:46.381Z,4.00
2024-02-24T02:01:13.361Z,3.50
2024-02-24T02:03:40.587Z,4.12
2024-02-24T02:06:09.067Z,3.65
2024-02-24T02:08:36.365Z,3.75
2024-02-24T02:11:04.172Z,3.97
2024-02-24T02:13:32.478Z,3.78
2024-02-24T02:16:00.395Z,3.90
2024-02-24T02:18:28.987Z,3.97
2024-02-24T02:20:58.358Z,3.72
2024-02-24T02:23:25.442Z,3.70
2024-02-24T02:25:52.613Z,3.72
2024-02-24T02:28:19.549Z,3.90
2024-02-24T02:30:48.331Z,3.70
2024-02-24T02:33:15.748Z,3.58
2024-02-24T02:35:42.825Z,3.62
2024-02-24T02:38:11.500Z,3.85
2024-02-24T02:40:38.788Z,3.92
2024-02-24T02:43:06.335Z,3.53
2024-02-24T02:45:34.276Z,3.95
2024-02-24T02:48:01.617Z,4.32
2024-02-24T02:50:30.476Z,4.47
2024-02-24T02:52:57.616Z,3.83
2024-02-24T02:55:25.314Z,3.90
2024-02-24T02:57:52.244Z,3.42
2024-02-24T03:00:19.402Z,4.00
2024-02-24T03:02:47.836Z,3.22
2024-02-24T03:05:17.169Z,3.75
2024-02-24T03:07:46.265Z,3.47
2024-02-24T03:10:13.776Z,3.87
2024-02-24T03:12:40.879Z,3.22
2024-02-24T03:15:09.180Z,3.92
2024-02-24T03:17:36.522Z,3.50
2024-02-24T03:20:04.822Z,3.10
2024-02-24T03:22:34.015Z,3.83
2024-02-24T03:25:01.290Z,3.72
2024-02-24T03:27:29.255Z,3.08
2024-02-24T03:29:56.165Z,4.03
2024-02-24T03:32:23.427Z,3.72
2024-02-24T03:34:52.296Z,3.60
2024-02-24T03:37:19.748Z,3.20
2024-02-24T03:39:46.912Z,3.87
2024-02-24T03:42:14.358Z,3.28
2024-02-24T03:44:41.905Z,3.55
2024-02-24T03:47:09.232Z,3.55
2024-02-24T03:49:37.857Z,3.65
2024-02-24T03:52:06.420Z,3.78
2024-02-24T03:54:35.535Z,3.65
2024-02-24T03:57:02.990Z,3.58
2024-02-24T03:59:30.042Z,3.90
2024-02-24T04:01:57.352Z,3.30
2024-02-24T04:04:26.033Z,3.37
2024-02-24T04:06:56.423Z,3.75
2024-02-24T04:09:23.378Z,3.80
2024-02-24T04:11:53.381Z,3.87
2024-02-24T04:14:21.021Z,4.25
2024-02-24T04:16:48.209Z,4.40
2024-02-24T04:19:16.025Z,3.72
2024-02-24T04:21:43.026Z,3.92
2024-02-24T04:24:10.526Z,3.55
2024-02-24T04:26:37.723Z,3.78
2024-02-24T04:29:05.149Z,4.10
2024-02-24T04:31:32.804Z,3.40
2024-02-24T04:34:00.254Z,3.10
2024-02-24T04:36:29.075Z,3.75
2024-02-24T04:38:56.499Z,3.17
2024-02-24T04:41:23.702Z,3.85
2024-02-24T04:43:51.145Z,3.40
2024-02-24T04:46:19.453Z,3.20
2024-02-24T04:48:47.188Z,3.33
2024-02-24T04:51:14.680Z,3.95
2024-02-24T04:53:42.132Z,3.25
2024-02-24T04:56:12.684Z,3.08
2024-02-24T04:58:39.674Z,3.30
2024-02-24T05:01:06.624Z,3.30
2024-02-24T05:03:35.518Z,2.95
2024-02-24T05:06:02.546Z,2.85
2024-02-24T05:08:30.109Z,3.17
2024-02-24T05:10:59.626Z,2.90
2024-02-24T05:13:27.255Z,2.60
2024-02-24T05:15:54.318Z,2.55
2024-02-24T05:18:22.141Z,2.47
2024-02-24T05:20:49.521Z,2.80
2024-02-24T05:23:17.434Z,2.92
2024-02-24T05:25:49.514Z,2.55
2024-02-24T05:28:16.637Z,4.35
2024-02-24T05:30:43.633Z,3.35
2024-02-24T05:33:11.503Z,3.05
2024-02-24T05:35:39.047Z,3.65
2024-02-24T05:38:08.652Z,3.35
2024-02-24T05:40:36.445Z,2.83
2024-02-24T05:43:04.274Z,3.17
2024-02-24T05:45:31.719Z,2.80
2024-02-24T05:47:59.040Z,2.22
2024-02-24T05:50:26.548Z,2.85
2024-02-24T05:52:54.039Z,2.62
2024-02-24T05:55:22.068Z,2.83
2024-02-24T05:57:49.513Z,2.95
2024-02-24T06:00:17.738Z,2.60
2024-02-24T06:02:44.998Z,2.42
2024-02-24T06:05:15.893Z,2.20
2024-02-24T06:07:43.449Z,2.33
2024-02-24T06:10:17.003Z,2.30
2024-02-24T06:12:44.394Z,2.40
2024-02-24T06:15:12.795Z,2.70
2024-02-24T06:17:43.205Z,2.95
2024-02-24T06:20:11.167Z,2.50
2024-02-24T06:22:38.532Z,2.42
2024-02-24T06:25:07.629Z,2.45
2024-02-24T06:27:34.642Z,3.03
2024-02-24T06:30:02.438Z,2.37
2024-02-24T06:32:30.056Z,2.87
2024-02-24T06:34:57.200Z,2.62
2024-02-24T06:37:26.874Z,2.58
2024-02-24T06:39:58.888Z,3.03
2024-02-24T06:42:26.024Z,2.58
2024-02-24T06:44:52.997Z,2.62
2024-02-24T06:47:28.387Z,2.58
2024-02-24T06:49:56.615Z,2.87
2024-02-24T06:52:24.347Z,3.08
2024-02-24T06:54:52.880Z,2.28
2024-02-24T06:57:20.620Z,1.92
2024-02-24T06:59:48.233Z,2.10
2024-02-24T07:02:17.030Z,1.87
2024-02-24T07:04:45.547Z,2.53
2024-02-24T07:07:14.779Z,2.22
2024-02-24T07:09:45.000Z,2.25
2024-02-24T07:12:14.166Z,2.10
2024-02-24T07:14:44.217Z,1.90
2024-02-24T07:17:11.546Z,2.35
2024-02-24T07:19:41.032Z,2.00
2024-02-24T07:22:08.495Z,2.53
2024-02-24T07:24:35.929Z,2.30
2024-02-24T07:27:03.933Z,2.45
2024-02-24T07:29:32.599Z,1.85
2024-02-24T07:32:01.409Z,2.40
2024-02-24T07:34:29.311Z,2.10
2024-02-24T07:36:56.324Z,2.12
2024-02-24T07:39:23.874Z,1.33
2024-02-24T07:41:51.076Z,2.03
2024-02-24T07:44:19.964Z,1.50
2024-02-24T07:46:48.274Z,1.27
2024-02-24T07:49:15.501Z,1.25
2024-02-24T07:51:53.405Z,0.95
2024-02-24T07:54:24.849Z,0.90
2024-02-24T07:56:53.034Z,1.23
2024-02-24T07:59:20.830Z,1.02
2024-02-24T08:01:48.314Z,1.23
2024-02-24T08:04:16.401Z,0.80
2024-02-24T08:06:44.982Z,1.00
2024-02-24T08:09:12.445Z,0.80
2024-02-24T08:11:41.870Z,0.80
2024-02-24T08:14:10.150Z,1.25
2024-02-24T08:16:37.621Z,0.70
2024-02-24T08:19:07.993Z,0.60
2024-02-24T08:21:38.551Z,0.70
2024-02-24T08:24:11.113Z,0.88
2024-02-24T08:26:41.192Z,0.73
2024-02-24T08:29:12.951Z,0.55
2024-02-24T08:31:40.239Z,0.50
2024-02-24T08:34:08.379Z,0.65
2024-02-24T08:36:36.598Z,0.73
2024-02-24T08:39:05.540Z,0.73
2024-02-24T08:41:34.811Z,0.50
2024-02-24T08:44:05.495Z,0.85
2024-02-24T08:46:37.211Z,0.47
2024-02-24T08:49:06.224Z,0.50
2024-02-24T08:51:34.273Z,0.85
2024-02-24T08:54:01.702Z,0.65
2024-02-24T08:56:32.769Z,0.62
2024-02-24T08:59:02.025Z,1.33
2024-02-24T09:01:31.522Z,0.73
2024-02-24T09:04:01.103Z,1.00
2024-02-24T09:06:29.595Z,0.75
2024-02-24T09:08:57.132Z,0.45
2024-02-24T09:11:26.864Z,0.80
2024-02-24T09:14:00.102Z,0.90
2024-02-24T09:16:27.826Z,0.90
2024-02-24T09:18:54.921Z,0.70
2024-02-24T09:21:22.604Z,0.80
2024-02-24T09:23:50.468Z,0.52
2024-02-24T09:26:18.072Z,0.60
2024-02-24T09:28:45.555Z,0.93
2024-02-24T09:31:13.427Z,0.60
2024-02-24T09:33:40.926Z,0.77
2024-02-24T09:36:09.082Z,0.75
2024-02-24T09:38:38.286Z,0.60
2024-02-24T09:41:11.756Z,0.80
2024-02-24T09:43:39.124Z,0.80
2024-02-24T09:46:06.960Z,0.82
2024-02-24T09:48:34.048Z,0.80
2024-02-24T09:51:01.436Z,0.90
2024-02-24T09:53:28.947Z,0.88
2024-02-24T09:55:57.968Z,1.00
2024-02-24T09:58:26.143Z,1.10
2024-02-24T10:00:53.659Z,1.12
2024-02-24T10:03:23.233Z,1.00
2024-02-24T10:05:51.139Z,0.93
2024-02-24T10:08:21.609Z,0.68
2024-02-24T10:10:48.828Z,1.00
2024-02-24T10:13:20.624Z,1.00
2024-02-24T10:15:47.706Z,1.05
2024-02-24T10:18:19.321Z,1.10
2024-02-24T10:20:46.475Z,0.90
2024-02-24T10:23:14.251Z,1.08
2024-02-24T10:25:42.350Z,0.88
2024-02-24T10:28:11.796Z,0.85
2024-02-24T10:30:40.240Z,0.98
2024-02-24T10:33:07.548Z,0.90
2024-02-24T10:35:35.711Z,0.60
2024-02-24T10:38:17.733Z,0.65
2024-02-24T10:40:53.526Z,0.65
2024-02-24T10:43:21.914Z,0.60
2024-02-24T10:45:49.319Z,0.60
2024-02-24T10:48:22.247Z,0.75
2024-02-24T10:50:52.454Z,0.60
2024-02-24T10:53:28.470Z,0.62
2024-02-24T10:55:57.957Z,0.80
2024-02-24T10:58:26.903Z,0.50
2024-02-24T11:00:56.086Z,0.75
2024-02-24T11:03:24.262Z,0.68
2024-02-24T11:05:52.324Z,0.57
2024-02-24T11:08:36.318Z,0.95
2024-02-24T11:13:33.547Z,0.40
2024-02-24T11:16:01.134Z,0.55
2024-02-24T11:18:50.847Z,0.50
2024-02-24T11:21:18.581Z,0.70
2024-02-24T11:23:49.177Z,0.52
2024-02-24T11:26:22.987Z,0.47
2024-02-24T11:29:04.733Z,0.43
2024-02-24T11:31:43.312Z,0.60
2024-02-24T11:36:48.128Z,0.40
2024-02-24T11:39:16.825Z,0.32
2024-02-24T11:41:44.604Z,1.75
2024-02-24T11:44:12.556Z,0.93
2024-02-24T11:46:41.946Z,0.75
2024-02-24T11:49:11.631Z,0.65
2024-02-24T11:51:40.386Z,0.40
2024-02-24T11:54:09.881Z,0.80
2024-02-24T11:56:38.512Z,0.77
2024-02-24T11:59:07.930Z,0.52
2024-02-24T12:01:38.534Z,0.55
2024-02-24T12:04:10.424Z,0.60
2024-02-24T12:06:39.064Z,0.68
2024-02-24T12:09:08.028Z,0.50
2024-02-24T12:11:38.414Z,0.60
2024-02-24T12:14:07.243Z,0.70
2024-02-24T12:16:35.310Z,0.43
2024-02-24T12:19:05.682Z,0.52
2024-02-24T12:21:33.232Z,0.50
2024-02-24T12:24:01.080Z,0.68
2024-02-24T12:26:29.209Z,0.55
2024-02-24T12:28:57.832Z,0.60
2024-02-24T12:31:25.627Z,0.85
2024-02-24T12:33:52.631Z,0.55
2024-02-24T12:36:20.160Z,0.57
2024-02-24T12:38:49.411Z,0.52
2024-02-24T12:41:16.449Z,0.70
2024-02-24T12:43:44.542Z,0.50
2024-02-24T12:46:11.791Z,0.88
2024-02-24T12:48:43.621Z,0.50
2024-02-24T12:51:12.957Z,0.65
2024-02-24T12:53:42.708Z,0.52
2024-02-24T12:58:45.012Z,0.73
2024-02-24T13:01:14.511Z,0.68
2024-02-24T13:03:42.332Z,0.40
2024-02-24T13:06:10.437Z,0.68
2024-02-24T13:08:37.506Z,0.82
2024-02-24T13:11:05.099Z,0.57
2024-02-24T13:13:41.151Z,0.62
2024-02-24T13:16:08.922Z,0.60
2024-02-24T13:18:37.012Z,0.40
2024-02-24T13:21:06.724Z,0.70
2024-02-24T13:23:33.967Z,0.60
2024-02-24T13:26:02.532Z,0.40
2024-02-24T13:28:31.812Z,0.77
2024-02-24T13:30:59.510Z,0.40
2024-02-24T13:33:29.258Z,0.52
2024-02-24T13:35:56.314Z,0.60
2024-02-24T13:38:23.594Z,0.98
2024-02-24T13:40:52.599Z,0.60
2024-02-24T13:43:19.825Z,0.60
2024-02-24T13:45:47.211Z,0.45
2024-02-24T13:48:14.328Z,0.70
2024-02-24T13:50:43.698Z,0.77
2024-02-24T13:53:12.657Z,0.73
2024-02-24T13:55:39.822Z,0.90
2024-02-24T13:58:07.896Z,0.60
2024-02-24T14:00:35.185Z,0.80
2024-02-24T14:03:03.773Z,0.80
2024-02-24T14:05:31.037Z,0.82
2024-02-24T14:07:59.600Z,0.98
2024-02-24T14:10:26.779Z,0.62
2024-02-24T14:12:55.850Z,0.95
2024-02-24T14:15:23.160Z,0.50
2024-02-24T14:17:50.841Z,0.52
2024-02-24T14:20:23.258Z,0.55
2024-02-24T14:23:00.577Z,0.45
2024-02-24T14:25:31.291Z,0.90
2024-02-24T14:28:00.787Z,0.52
2024-02-24T14:30:28.237Z,0.75
2024-02-24T14:33:03.836Z,0.68
2024-02-24T14:35:33.445Z,0.45
2024-02-24T14:38:04.381Z,1.02
2024-02-24T14:40:31.582Z,0.50
2024-02-24T14:42:59.310Z,0.70
2024-02-24T14:45:26.753Z,0.50
2024-02-24T14:47:55.948Z,0.43
2024-02-24T14:50:23.594Z,0.47
2024-02-24T14:52:51.068Z,0.45
2024-02-24T14:55:19.751Z,0.70
2024-02-24T14:57:47.583Z,0.70
2024-02-24T15:00:16.059Z,0.90
2024-02-24T15:02:52.748Z,0.68
2024-02-24T15:05:31.815Z,0.57
2024-02-24T15:08:03.188Z,0.55
2024-02-24T15:10:30.716Z,0.70
2024-02-24T15:12:58.175Z,0.70
2024-02-24T15:15:27.782Z,0.60
2024-02-24T15:18:14.621Z,0.88
2024-02-24T15:20:41.885Z,0.55
2024-02-24T15:23:08.881Z,0.68
2024-02-24T15:25:36.786Z,0.73
2024-02-24T15:28:04.204Z,0.62
2024-02-24T15:30:31.119Z,1.20
2024-02-24T15:33:06.240Z,0.90
2024-02-24T15:35:33.485Z,0.70
2024-02-24T15:38:00.404Z,1.05
2024-02-24T15:40:29.523Z,0.62
2024-02-24T15:42:58.534Z,0.70
2024-02-24T15:45:26.063Z,0.95
2024-02-24T15:47:53.119Z,1.10
2024-02-24T15:50:23.072Z,2.58
2024-02-24T15:52:51.728Z,3.15
2024-02-24T15:55:20.078Z,4.95
2024-02-24T15:57:49.078Z,3.78
2024-02-24T16:00:17.200Z,4.00
2024-02-24T16:02:45.114Z,7.03
2024-02-24T16:05:12.248Z,8.00
2024-02-24T16:07:42.581Z,10.65
2024-02-24T16:10:10.494Z,9.65
2024-02-24T16:12:39.682Z,8.63
2024-02-24T16:15:09.886Z,9.50
2024-02-24T16:17:38.231Z,10.32
2024-02-24T16:20:06.393Z,10.32
2024-02-24T16:22:42.387Z,10.38
2024-02-24T16:25:14.025Z,8.07
2024-02-24T16:27:41.513Z,5.65
2024-02-24T16:30:09.536Z,4.32
2024-02-24T16:32:38.338Z,4.25
2024-02-24T16:35:06.696Z,3.25
2024-02-24T16:37:34.171Z,4.45
2024-02-24T16:40:01.377Z,4.10
2024-02-24T16:42:29.473Z,3.78
2024-02-24T16:45:00.251Z,4.43
2024-02-24T16:47:27.655Z,3.30
2024-02-24T16:49:54.764Z,3.97
2024-02-24T16:52:24.245Z,4.25
2024-02-24T16:54:51.488Z,4.43
2024-02-24T16:57:18.497Z,4.43
2024-02-24T16:59:45.514Z,4.57
2024-02-24T17:02:12.748Z,10.43
2024-02-24T17:04:40.758Z,11.25
2024-02-24T17:07:08.785Z,5.10
2024-02-24T17:09:35.987Z,6.50
2024-02-24T17:12:03.959Z,5.32
2024-02-24T17:14:31.501Z,5.68
2024-02-24T17:16:58.693Z,5.37
2024-02-24T17:19:27.667Z,6.05
2024-02-24T17:21:56.131Z,4.72
2024-02-24T17:24:23.465Z,5.37
2024-02-24T17:26:55.787Z,6.28
2024-02-24T17:29:23.402Z,7.20
2024-02-24T17:31:52.307Z,6.18
2024-02-24T17:34:20.654Z,6.72
2024-02-24T17:36:49.959Z,7.07
2024-02-24T17:39:17.472Z,6.62
2024-02-24T17:41:49.224Z,7.00
2024-02-24T17:44:18.386Z,6.62
2024-02-24T17:46:45.365Z,7.05
2024-02-24T17:49:14.285Z,7.18
2024-02-24T17:51:41.657Z,8.40
2024-02-24T17:54:09.229Z,7.97
2024-02-24T17:56:43.596Z,7.47
2024-02-24T17:59:11.344Z,7.20
2024-02-24T18:01:39.663Z,7.68
2024-02-24T18:04:08.463Z,8.73
2024-02-24T18:06:35.610Z,7.85
2024-02-24T18:09:06.622Z,7.53
2024-02-24T18:11:35.332Z,6.60
2024-02-24T18:14:02.792Z,6.10
2024-02-24T18:16:31.546Z,4.97
2024-02-24T18:18:59.303Z,4.90
2024-02-24T18:21:26.306Z,4.80
2024-02-24T18:23:53.832Z,4.00
2024-02-24T18:26:21.206Z,4.03
2024-02-24T18:28:48.816Z,3.72
2024-02-24T18:31:15.704Z,4.72
2024-02-24T18:33:45.544Z,4.62
2024-02-24T18:36:13.070Z,3.58
2024-02-24T18:38:40.104Z,4.40
2024-02-24T18:41:08.638Z,4.12
2024-02-24T18:43:35.554Z,4.20
2024-02-24T18:46:04.044Z,4.03
2024-02-24T18:48:31.885Z,4.37
2024-02-24T18:51:00.886Z,5.05
2024-02-24T18:53:32.438Z,5.28
2024-02-24T18:56:19.983Z,4.85
2024-02-24T18:58:47.442Z,4.95
2024-02-24T19:01:14.632Z,4.20
2024-02-24T19:03:42.168Z,4.35
2024-02-24T19:06:09.987Z,4.75
2024-02-24T19:08:40.956Z,4.53
2024-02-24T19:11:17.372Z,4.28
2024-02-24T19:13:44.614Z,4.47
2024-02-24T19:16:11.750Z,5.00
2024-02-24T19:18:39.065Z,4.70
2024-02-24T19:21:08.378Z,3.90
2024-02-24T19:23:38.017Z,4.45
2024-02-24T19:26:09.060Z,4.40
2024-02-24T19:28:36.236Z,4.70
2024-02-24T19:31:03.267Z,5.80
2024-02-24T19:33:30.479Z,5.57
2024-02-24T19:35:58.117Z,5.22
2024-02-24T19:38:25.179Z,4.45
2024-02-24T19:40:52.144Z,4.03
2024-02-24T19:43:19.420Z,4.75
2024-02-24T19:45:47.684Z,4.70
2024-02-24T19:48:15.307Z,4.35
2024-02-24T19:50:48.476Z,3.87
2024-02-24T19:53:15.451Z,4.40
2024-02-24T19:55:42.818Z,3.62
2024-02-24T19:58:21.275Z,4.22
2024-02-24T20:00:58.096Z,4.53
2024-02-24T20:03:26.266Z,3.87
2024-02-24T20:05:53.092Z,4.30
2024-02-24T20:08:20.057Z,4.37
2024-02-24T20:10:47.142Z,4.90
2024-02-24T20:13:17.033Z,4.95
2024-02-24T20:15:44.011Z,3.80
2024-02-24T20:18:12.128Z,4.10
2024-02-24T20:20:39.548Z,4.50
2024-02-24T20:23:08.951Z,4.18
2024-02-24T20:25:36.360Z,3.95
2024-02-24T20:28:04.889Z,3.62
2024-02-24T20:30:32.321Z,4.22
2024-02-24T20:32:59.803Z,5.00
2024-02-24T20:35:30.020Z,4.57
2024-02-24T20:37:57.582Z,4.75
2024-02-24T20:40:26.933Z,4.90
2024-02-24T20:42:59.736Z,5.43
2024-02-24T20:45:27.071Z,4.93
2024-02-24T20:47:53.941Z,5.32
2024-02-24T20:50:23.106Z,5.07
2024-02-24T20:52:50.625Z,5.07
2024-02-24T20:55:17.601Z,4.30
2024-02-24T20:57:45.779Z,4.10
2024-02-24T21:00:13.702Z,3.78
2024-02-24T21:02:41.748Z,3.67
2024-02-24T21:05:09.586Z,3.70
2024-02-24T21:07:38.810Z,4.37
2024-02-24T21:10:08.118Z,5.12
2024-02-24T21:12:35.756Z,4.25
2024-02-24T21:15:02.692Z,4.62
2024-02-24T21:17:31.083Z,4.85
2024-02-24T21:20:04.466Z,4.82
2024-02-24T21:22:35.172Z,5.05
2024-02-24T21:25:02.584Z,4.07
2024-02-24T21:27:30.090Z,4.03
2024-02-24T21:29:56.951Z,3.37
2024-02-24T21:32:24.323Z,3.53
2024-02-24T21:34:51.243Z,3.30
2024-02-24T21:37:21.850Z,3.20
2024-02-24T21:39:49.365Z,3.75
2024-02-24T21:42:18.569Z,3.40
2024-02-24T21:44:45.382Z,3.92
2024-02-24T21:47:14.316Z,3.70
2024-02-24T21:49:41.429Z,3.95
2024-02-24T21:52:11.120Z,4.00
2024-02-24T21:54:37.896Z,4.35
2024-02-24T21:57:04.917Z,3.90
2024-02-24T21:59:31.781Z,3.97
2024-02-24T22:02:00.627Z,3.20
2024-02-24T22:04:31.543Z,2.87
2024-02-24T22:06:58.594Z,3.40
2024-02-24T22:09:25.596Z,3.22
2024-02-24T22:11:52.896Z,3.70
2024-02-24T22:14:22.955Z,3.08
2024-02-24T22:16:50.426Z,3.08
2024-02-24T22:19:19.143Z,3.30
2024-02-24T22:21:46.645Z,3.60
2024-02-24T22:24:13.648Z,4.00
2024-02-24T22:26:46.721Z,4.05
2024-02-24T22:29:13.885Z,4.43
2024-02-24T22:31:42.602Z,4.15
2024-02-24T22:34:09.582Z,3.90
2024-02-24T22:36:36.609Z,3.20
2024-02-24T22:39:06.350Z,3.40
2024-02-24T22:41:34.149Z,3.78
2024-02-24T22:44:01.155Z,3.40
2024-02-24T22:46:31.598Z,3.60
2024-02-24T22:48:58.949Z,3.60
2024-02-24T22:51:27.138Z,3.87
2024-02-24T22:53:54.933Z,3.72
2024-02-24T22:56:25.279Z,3.85
2024-02-24T22:58:56.114Z,3.30
2024-02-24T23:04:54.205Z,3.50
2024-02-24T23:07:21.451Z,3.33
2024-02-24T23:09:49.997Z,4.30
2024-02-24T23:12:19.530Z,4.20
2024-02-24T23:14:47.400Z,3.95
2024-02-24T23:17:18.146Z,4.60
2024-02-24T23:19:45.924Z,3.80
2024-02-24T23:22:21.255Z,3.40
2024-02-24T23:24:48.691Z,3.85
2024-02-24T23:27:16.840Z,3.17
2024-02-24T23:29:44.293Z,3.03
2024-02-24T23:32:12.303Z,2.53
2024-02-24T23:34:40.268Z,3.05
2024-02-24T23:37:07.841Z,2.60
2024-02-24T23:39:35.233Z,2.50
2024-02-24T23:42:03.127Z,2.40
2024-02-24T23:44:32.201Z,2.50
2024-02-24T23:46:59.714Z,2.78
2024-02-24T23:49:27.555Z,2.50
2024-02-24T23:51:55.027Z,2.80
2024-02-24T23:54:22.519Z,2.20
2024-02-24T23:56:50.229Z,2.30
2024-02-24T23:59:17.187Z,2.12
